createdAt,value
2019-03-08T00:01:09.175Z,20.37
2019-03-08T00:03:38.451Z,23.27
2019-03-08T00:06:07.673Z,20.88
2019-03-08T00:08:36.962Z,19.17
2019-03-08T00:11:06.445Z,18.65
2019-03-08T00:13:35.673Z,20.45
2019-03-08T00:16:04.987Z,18.42
2019-03-08T00:18:34.272Z,26.55
2019-03-08T00:21:03.551Z,25.75
2019-03-08T00:23:32.906Z,22.13
2019-03-08T00:26:02.156Z,19.98
2019-03-08T00:28:31.374Z,22.77
2019-03-08T00:31:00.614Z,19.25
2019-03-08T00:33:29.903Z,21.12
2019-03-08T00:35:59.370Z,16.45
2019-03-08T00:38:28.896Z,18.20
2019-03-08T00:40:58.111Z,15.10
2019-03-08T00:43:27.293Z,11.35
2019-03-08T00:45:56.545Z,26.57
2019-03-08T00:48:25.848Z,16.87
2019-03-08T00:50:55.092Z,14.28
2019-03-08T00:53:24.343Z,15.63
2019-03-08T00:55:53.573Z,17.75
2019-03-08T00:58:22.920Z,20.45
2019-03-08T01:00:52.155Z,13.10
2019-03-08T01:03:21.415Z,11.55
2019-03-08T01:05:50.646Z,9.98
2019-03-08T01:08:19.879Z,12.20
2019-03-08T01:10:49.080Z,12.28
2019-03-08T01:13:18.338Z,14.63
2019-03-08T01:15:47.711Z,12.58
2019-03-08T01:18:16.993Z,9.55
2019-03-08T01:20:47.444Z,15.28
2019-03-08T01:23:16.711Z,11.40
2019-03-08T01:25:46.057Z,13.45
2019-03-08T01:28:16.280Z,12.75
2019-03-08T01:30:45.618Z,15.25
2019-03-08T01:33:14.925Z,11.65
2019-03-08T01:35:44.143Z,14.90
2019-03-08T01:38:13.675Z,12.40
2019-03-08T01:40:43.156Z,11.30
2019-03-08T01:43:12.372Z,11.28
2019-03-08T01:45:41.612Z,12.78
2019-03-08T01:48:11.287Z,17.12
2019-03-08T01:50:41.278Z,12.18
2019-03-08T01:53:10.547Z,20.95
2019-03-08T01:55:39.875Z,14.65
2019-03-08T01:58:09.157Z,16.27
2019-03-08T02:00:38.331Z,14.50
2019-03-08T02:03:07.587Z,16.02
2019-03-08T02:05:36.765Z,12.07
2019-03-08T02:08:06.042Z,12.95
2019-03-08T02:10:35.335Z,16.23
2019-03-08T02:13:05.331Z,16.85
2019-03-08T02:15:34.904Z,13.72
2019-03-08T02:18:04.414Z,15.45
2019-03-08T02:20:33.706Z,17.37
2019-03-08T02:23:02.888Z,14.53
2019-03-08T02:25:32.170Z,13.32
2019-03-08T02:28:02.396Z,19.90
2019-03-08T02:30:31.727Z,21.73
2019-03-08T02:33:01.074Z,18.15
2019-03-08T02:35:30.414Z,28.23
2019-03-08T02:37:59.712Z,18.17
2019-03-08T02:40:36.384Z,20.05
2019-03-08T02:43:12.368Z,25.25
2019-03-08T02:45:41.982Z,19.37
2019-03-08T02:48:11.243Z,21.37
2019-03-08T02:50:40.486Z,22.82
2019-03-08T02:53:09.650Z,22.73
2019-03-08T02:55:38.919Z,27.02
2019-03-08T02:58:08.150Z,31.50
2019-03-08T03:00:43.714Z,25.27
2019-03-08T03:03:13.053Z,26.93
2019-03-08T03:05:42.268Z,25.27
2019-03-08T03:08:11.494Z,36.05
2019-03-08T03:10:40.788Z,29.20
2019-03-08T03:13:10.021Z,25.90
2019-03-08T03:15:39.670Z,30.60
2019-03-08T03:18:08.932Z,40.00
2019-03-08T03:20:38.524Z,26.70
2019-03-08T03:23:08.048Z,29.60
2019-03-08T03:25:37.318Z,28.23
2019-03-08T03:28:06.900Z,36.93
2019-03-08T03:30:36.104Z,39.90
2019-03-08T03:33:05.387Z,35.08
2019-03-08T03:35:34.769Z,28.65
2019-03-08T03:38:04.171Z,35.98
2019-03-08T03:40:35.065Z,34.40
2019-03-08T03:43:04.498Z,29.72
2019-03-08T03:45:34.065Z,39.88
2019-03-08T03:48:03.645Z,27.70
2019-03-08T03:50:32.993Z,31.25
2019-03-08T03:53:02.244Z,30.17
2019-03-08T03:55:31.518Z,31.48
2019-03-08T03:58:00.737Z,30.25
2019-03-08T04:00:30.350Z,36.40
2019-03-08T04:02:59.674Z,28.73
2019-03-08T04:05:28.952Z,31.57
2019-03-08T04:07:58.196Z,40.90
2019-03-08T04:10:27.388Z,34.05
2019-03-08T04:12:56.639Z,35.78
2019-03-08T04:15:26.013Z,33.08
2019-03-08T04:17:55.253Z,35.60
2019-03-08T04:20:24.470Z,29.92
2019-03-08T04:22:53.761Z,35.70
2019-03-08T04:25:22.970Z,32.80
2019-03-08T04:27:52.272Z,43.42
2019-03-08T04:30:21.832Z,33.10
2019-03-08T04:32:51.082Z,30.70
2019-03-08T04:35:20.334Z,33.10
2019-03-08T04:37:49.666Z,36.95
2019-03-08T04:40:18.928Z,31.52
2019-03-08T04:42:48.237Z,33.00
2019-03-08T04:45:17.510Z,35.52
2019-03-08T04:47:46.695Z,31.95
2019-03-08T04:50:16.125Z,30.60
2019-03-08T04:52:45.541Z,39.95
2019-03-08T04:55:16.929Z,31.23
2019-03-08T04:57:47.396Z,32.48
2019-03-08T05:00:18.041Z,32.63
2019-03-08T05:02:47.306Z,39.13
2019-03-08T05:05:16.616Z,38.15
2019-03-08T05:07:45.964Z,27.00
2019-03-08T05:10:17.397Z,38.28
2019-03-08T05:12:46.595Z,35.98
2019-03-08T05:15:15.997Z,37.40
2019-03-08T05:17:45.259Z,39.95
2019-03-08T05:20:14.420Z,35.98
2019-03-08T05:22:43.676Z,31.80
2019-03-08T05:25:14.089Z,40.52
2019-03-08T05:27:43.451Z,37.75
2019-03-08T05:30:16.649Z,39.75
2019-03-08T05:32:46.129Z,34.88
2019-03-08T05:35:15.348Z,39.42
2019-03-08T05:37:46.541Z,28.38
2019-03-08T05:40:16.075Z,44.48
2019-03-08T05:42:45.249Z,42.60
2019-03-08T05:45:15.174Z,40.20
2019-03-08T05:47:44.366Z,33.98
2019-03-08T05:50:13.552Z,37.45
2019-03-08T05:52:43.132Z,35.25
2019-03-08T05:55:13.450Z,45.43
2019-03-08T05:57:42.706Z,34.95
2019-03-08T06:00:20.660Z,49.30
2019-03-08T06:02:49.884Z,37.08
2019-03-08T06:05:20.503Z,37.88
2019-03-08T06:07:49.708Z,39.05
2019-03-08T06:10:36.628Z,35.78
2019-03-08T06:13:07.039Z,36.15
2019-03-08T06:15:36.332Z,35.35
2019-03-08T06:18:05.673Z,40.95
2019-03-08T06:20:34.841Z,41.20
2019-03-08T06:23:04.730Z,34.40
2019-03-08T06:25:35.317Z,42.17
2019-03-08T06:28:04.491Z,36.03
2019-03-08T06:30:34.055Z,31.00
2019-03-08T06:33:03.244Z,29.82
2019-03-08T06:35:32.516Z,32.35
2019-03-08T06:38:01.761Z,34.63
2019-03-08T06:40:32.607Z,35.25
2019-03-08T06:43:01.877Z,31.52
2019-03-08T06:45:31.306Z,31.00
2019-03-08T06:48:00.702Z,35.70
2019-03-08T06:50:29.927Z,34.78
2019-03-08T06:52:59.164Z,32.03
2019-03-08T06:55:30.151Z,27.58
2019-03-08T06:58:00.813Z,33.02
2019-03-08T07:00:47.021Z,25.35
2019-03-08T07:03:16.272Z,29.90
2019-03-08T07:05:45.663Z,23.73
2019-03-08T07:08:14.816Z,26.37
2019-03-08T07:10:44.279Z,30.43
2019-03-08T07:13:13.512Z,24.23
2019-03-08T07:15:42.810Z,34.55
2019-03-08T07:18:13.159Z,25.32
2019-03-08T07:20:50.562Z,31.05
2019-03-08T07:23:40.346Z,28.77
2019-03-08T07:26:20.410Z,25.68
2019-03-08T07:28:54.304Z,27.30
2019-03-08T07:31:31.474Z,29.48
2019-03-08T07:34:05.232Z,24.05
2019-03-08T07:36:52.378Z,25.55
2019-03-08T07:39:29.177Z,34.83
2019-03-08T07:42:16.525Z,26.07
2019-03-08T07:45:02.294Z,37.13
2019-03-08T07:47:37.371Z,30.45
2019-03-08T07:50:22.379Z,27.48
2019-03-08T07:53:06.536Z,25.25
2019-03-08T07:55:43.539Z,29.48
2019-03-08T07:58:17.635Z,34.27
2019-03-08T08:00:48.553Z,30.70
2019-03-08T08:03:19.792Z,27.45
2019-03-08T08:05:58.491Z,22.07
2019-03-08T08:08:38.595Z,30.08
2019-03-08T08:11:09.488Z,30.97
2019-03-08T08:13:40.713Z,38.02
2019-03-08T08:16:23.418Z,26.82
2019-03-08T08:19:12.332Z,19.90
2019-03-08T08:21:49.379Z,23.73
2019-03-08T08:24:20.315Z,28.90
2019-03-08T08:27:07.340Z,26.60
2019-03-08T08:29:56.682Z,24.32
2019-03-08T08:32:43.069Z,26.07
2019-03-08T08:35:30.636Z,23.87
2019-03-08T08:38:05.928Z,26.07
2019-03-08T08:40:36.990Z,28.30
2019-03-08T08:43:13.975Z,25.95
2019-03-08T08:46:01.932Z,22.52
2019-03-08T08:48:39.058Z,20.92
2019-03-08T08:51:25.093Z,21.00
2019-03-08T08:54:12.025Z,26.25
2019-03-08T08:56:51.962Z,25.75
2019-03-08T08:59:22.779Z,19.52
2019-03-08T09:01:55.153Z,14.75
2019-03-08T09:04:28.904Z,19.95
2019-03-08T09:07:02.774Z,26.60
2019-03-08T09:09:33.969Z,22.07
2019-03-08T09:12:04.875Z,20.23
2019-03-08T09:14:35.859Z,21.50
2019-03-08T09:17:06.829Z,17.67
2019-03-08T09:19:55.155Z,22.17
2019-03-08T09:22:37.919Z,18.30
2019-03-08T09:25:12.920Z,20.68
2019-03-08T09:27:46.532Z,12.15
2019-03-08T09:30:17.494Z,25.77
2019-03-08T09:32:59.324Z,20.37
2019-03-08T09:35:29.505Z,18.40
2019-03-08T09:38:00.460Z,21.52
2019-03-08T09:40:34.589Z,17.73
2019-03-08T09:43:05.537Z,17.95
2019-03-08T09:45:52.893Z,25.25
2019-03-08T09:48:24.964Z,22.37
2019-03-08T09:51:02.100Z,19.27
2019-03-08T09:53:35.951Z,19.73
2019-03-08T09:56:13.909Z,17.32
2019-03-08T09:58:54.052Z,16.10
2019-03-08T10:01:31.253Z,21.37
2019-03-08T10:04:05.322Z,26.02
2019-03-08T10:06:36.296Z,23.92
2019-03-08T10:09:11.561Z,24.75
2019-03-08T10:11:48.556Z,27.02
2019-03-08T10:14:25.391Z,18.70
2019-03-08T10:16:59.363Z,21.80
2019-03-08T10:19:36.285Z,22.00
2019-03-08T10:22:16.435Z,28.05
2019-03-08T10:24:47.411Z,26.60
2019-03-08T10:27:24.701Z,26.35
2019-03-08T10:29:58.109Z,22.58
2019-03-08T10:32:38.149Z,16.93
2019-03-08T10:35:10.976Z,17.55
2019-03-08T10:40:30.535Z,11.48
2019-03-08T10:43:01.465Z,15.68
2019-03-08T10:45:36.804Z,15.38
2019-03-08T10:48:16.596Z,15.60
2019-03-08T10:51:01.192Z,13.50
2019-03-08T10:53:32.328Z,11.53
2019-03-08T10:56:06.153Z,11.48
2019-03-08T10:58:45.906Z,13.38
2019-03-08T11:01:31.475Z,11.75
2019-03-08T11:04:08.387Z,11.50
2019-03-08T11:06:39.981Z,11.90
2019-03-08T11:09:30.660Z,9.35
2019-03-08T11:12:04.769Z,15.72
2019-03-08T11:14:44.570Z,14.35
2019-03-08T11:17:18.481Z,10.80
2019-03-08T11:19:55.686Z,12.80
2019-03-08T11:22:29.197Z,13.35
2019-03-08T11:25:08.045Z,13.32
2019-03-08T11:27:44.985Z,12.93
2019-03-08T11:30:22.239Z,13.85
2019-03-08T11:32:53.059Z,15.30
2019-03-08T11:35:30.069Z,10.13
2019-03-08T11:38:07.096Z,8.08
2019-03-08T11:40:41.294Z,12.98
2019-03-08T11:43:24.124Z,10.40
2019-03-08T11:46:13.319Z,11.57
2019-03-08T11:49:00.508Z,13.03
2019-03-08T11:51:50.275Z,13.75
2019-03-08T11:54:27.014Z,11.22
2019-03-08T11:57:01.970Z,10.70
2019-03-08T11:59:38.929Z,11.28
2019-03-08T12:02:12.573Z,9.85
2019-03-08T12:04:43.554Z,13.98
2019-03-08T12:07:33.055Z,10.88
2019-03-08T12:10:26.666Z,16.87
2019-03-08T12:12:58.162Z,14.45
2019-03-08T12:15:29.004Z,10.63
2019-03-08T12:18:02.870Z,14.73
2019-03-08T12:20:36.451Z,9.08
2019-03-08T12:23:07.347Z,15.35
2019-03-08T12:25:47.528Z,14.70
2019-03-08T12:28:37.088Z,9.50
2019-03-08T12:31:24.008Z,13.85
2019-03-08T12:34:12.663Z,8.93
2019-03-08T12:36:44.249Z,7.08
2019-03-08T12:39:15.179Z,9.85
2019-03-08T12:41:58.305Z,6.90
2019-03-08T12:44:29.261Z,10.40
2019-03-08T12:47:02.932Z,13.70
2019-03-08T12:49:45.811Z,11.10
2019-03-08T12:52:17.032Z,10.48
2019-03-08T12:54:53.699Z,7.35
2019-03-08T12:57:24.555Z,11.00
2019-03-08T13:00:04.411Z,10.15
2019-03-08T13:02:38.477Z,9.40
2019-03-08T13:05:25.651Z,9.50
2019-03-08T13:08:02.565Z,8.88
2019-03-08T13:10:31.740Z,10.80
2019-03-08T13:13:02.279Z,10.03
2019-03-08T13:15:31.557Z,11.00
2019-03-08T13:18:00.928Z,9.83
2019-03-08T13:20:30.088Z,11.22
2019-03-08T13:22:59.350Z,12.43
2019-03-08T13:25:28.614Z,11.65
2019-03-08T13:27:57.787Z,8.10
2019-03-08T13:30:26.948Z,9.13
2019-03-08T13:32:57.963Z,11.93
2019-03-08T13:35:27.125Z,10.05
2019-03-08T13:37:56.595Z,10.70
2019-03-08T13:40:25.751Z,9.80
2019-03-08T13:42:56.673Z,10.85
2019-03-08T13:45:27.623Z,9.78
2019-03-08T13:47:57.995Z,11.30
2019-03-08T13:50:27.325Z,11.55
2019-03-08T13:52:58.249Z,9.25
2019-03-08T13:55:27.569Z,11.28
2019-03-08T13:57:58.654Z,11.83
2019-03-08T14:00:27.893Z,11.22
2019-03-08T14:02:57.157Z,8.55
2019-03-08T14:05:26.485Z,15.98
2019-03-08T14:07:55.967Z,12.75
2019-03-08T14:10:25.229Z,11.45
2019-03-08T14:12:54.782Z,12.70
2019-03-08T14:15:24.118Z,12.60
2019-03-08T14:17:53.684Z,10.28
2019-03-08T14:20:26.770Z,14.05
2019-03-08T14:22:55.991Z,11.70
2019-03-08T14:25:25.306Z,12.03
2019-03-08T14:27:54.618Z,7.78
2019-03-08T14:30:26.900Z,9.35
2019-03-08T14:32:57.919Z,10.72
2019-03-08T14:35:29.623Z,18.82
2019-03-08T14:37:59.382Z,12.05
2019-03-08T14:40:45.613Z,13.43
2019-03-08T14:43:28.891Z,8.18
2019-03-08T14:46:06.453Z,13.75
2019-03-08T14:48:35.911Z,9.60
2019-03-08T14:51:05.279Z,15.10
2019-03-08T14:53:34.570Z,7.95
2019-03-08T14:56:03.791Z,11.40
2019-03-08T14:58:36.792Z,10.98
2019-03-08T15:01:06.276Z,10.65
2019-03-08T15:03:43.404Z,13.88
2019-03-08T15:06:06.785Z,8.85
2019-03-08T15:08:36.031Z,8.98
2019-03-08T15:11:05.631Z,13.22
2019-03-08T15:13:36.343Z,11.15
2019-03-08T15:16:05.587Z,13.68
2019-03-08T15:18:34.891Z,10.08
2019-03-08T15:21:04.095Z,15.88
2019-03-08T15:23:33.892Z,13.32
2019-03-08T15:26:03.067Z,16.67
2019-03-08T15:28:32.251Z,14.23
2019-03-08T15:31:01.565Z,12.82
2019-03-08T15:33:31.038Z,11.55
2019-03-08T15:36:00.277Z,11.00
2019-03-08T15:38:30.671Z,11.45
2019-03-08T15:41:00.293Z,13.30
2019-03-08T15:43:29.493Z,13.78
2019-03-08T15:45:58.656Z,13.68
2019-03-08T15:48:27.928Z,12.40
2019-03-08T15:50:57.090Z,15.53
2019-03-08T15:53:27.300Z,17.05
2019-03-08T15:55:56.548Z,9.63
2019-03-08T15:58:25.807Z,15.20
2019-03-08T16:00:54.953Z,16.45
2019-03-08T16:03:24.386Z,12.45
2019-03-08T16:05:53.797Z,16.15
2019-03-08T16:08:23.058Z,14.65
2019-03-08T16:10:52.295Z,16.20
2019-03-08T16:13:23.237Z,14.93
2019-03-08T16:15:52.463Z,13.98
2019-03-08T16:18:21.901Z,16.20
2019-03-08T16:20:51.095Z,16.40
2019-03-08T16:23:21.249Z,13.13
2019-03-08T16:25:50.867Z,20.75
2019-03-08T16:28:20.098Z,18.12
2019-03-08T16:30:53.835Z,15.63
2019-03-08T16:33:41.713Z,12.18
2019-03-08T16:36:12.541Z,19.35
2019-03-08T16:38:46.414Z,15.80
2019-03-08T16:41:26.809Z,21.05
2019-03-08T16:43:57.760Z,17.10
2019-03-08T16:46:28.597Z,18.02
2019-03-08T16:49:19.832Z,13.55
2019-03-08T16:52:09.143Z,16.15
2019-03-08T16:54:57.743Z,17.75
2019-03-08T16:57:45.148Z,19.25
2019-03-08T17:00:25.111Z,16.73
2019-03-08T17:03:11.211Z,17.70
2019-03-08T17:05:56.847Z,13.60
2019-03-08T17:08:47.093Z,18.77
2019-03-08T17:11:34.574Z,20.08
2019-03-08T17:14:14.353Z,25.72
2019-03-08T17:17:02.695Z,30.40
2019-03-08T17:19:33.929Z,21.75
2019-03-08T17:22:21.205Z,24.92
2019-03-08T17:24:53.950Z,17.98
2019-03-08T17:30:13.130Z,23.18
2019-03-08T17:32:44.044Z,24.18
2019-03-08T17:35:20.743Z,28.80
2019-03-08T17:37:51.735Z,27.60
2019-03-08T17:40:40.924Z,25.00
2019-03-08T17:43:15.086Z,18.20
2019-03-08T17:46:01.249Z,16.32
2019-03-08T17:48:41.503Z,22.13
2019-03-08T17:51:28.933Z,23.95
2019-03-08T17:53:59.931Z,25.92
2019-03-08T17:56:48.779Z,16.35
2019-03-08T17:59:34.963Z,19.00
2019-03-08T18:02:09.077Z,16.87
2019-03-08T18:04:46.300Z,19.55
2019-03-08T18:07:23.373Z,14.28
2019-03-08T18:10:11.988Z,20.80
2019-03-08T18:12:49.182Z,14.58
2019-03-08T18:15:35.104Z,22.32
2019-03-08T18:18:23.238Z,18.82
2019-03-08T18:20:54.689Z,18.57
2019-03-08T18:23:37.710Z,16.82
2019-03-08T18:26:24.942Z,20.45
2019-03-08T18:28:58.607Z,18.23
2019-03-08T18:31:45.796Z,18.37
2019-03-08T18:34:17.019Z,23.62
2019-03-08T18:36:50.816Z,18.73
2019-03-08T18:39:21.758Z,19.05
2019-03-08T18:42:05.026Z,19.50
2019-03-08T18:44:44.758Z,19.73
2019-03-08T18:47:18.912Z,16.25
2019-03-08T18:49:52.531Z,31.62
2019-03-08T18:52:26.825Z,23.10
2019-03-08T18:55:09.957Z,21.75
2019-03-08T18:57:41.971Z,20.45
2019-03-08T19:00:25.943Z,26.15
2019-03-08T19:05:58.855Z,19.95
2019-03-08T19:08:36.023Z,25.68
2019-03-08T19:11:10.139Z,27.27
2019-03-08T19:13:47.192Z,32.05
2019-03-08T19:16:36.083Z,27.95
2019-03-08T19:19:07.090Z,30.65
2019-03-08T19:21:49.869Z,23.65
2019-03-08T19:24:20.940Z,22.17
2019-03-08T19:26:57.758Z,34.10
2019-03-08T19:29:44.875Z,28.07
2019-03-08T19:32:22.548Z,27.52
2019-03-08T19:34:59.528Z,28.45
2019-03-08T19:37:30.487Z,22.98
2019-03-08T19:40:02.294Z,34.77
2019-03-08T19:42:51.666Z,33.88
2019-03-08T19:45:33.232Z,27.80
2019-03-08T19:48:20.684Z,27.15
2019-03-08T19:51:00.543Z,32.63
2019-03-08T19:53:48.014Z,39.13
2019-03-08T19:56:35.635Z,40.48
2019-03-08T19:59:18.232Z,43.78
2019-03-08T20:01:55.662Z,25.10
2019-03-08T20:04:29.642Z,20.62
2019-03-08T20:07:04.977Z,21.50
2019-03-08T20:09:41.848Z,21.02
2019-03-08T20:12:14.342Z,18.62
2019-03-08T20:14:46.405Z,19.40
2019-03-08T20:17:32.362Z,20.68
2019-03-08T20:20:19.657Z,16.85
2019-03-08T20:22:54.341Z,11.30
2019-03-08T20:25:41.667Z,11.83
2019-03-08T20:28:21.541Z,16.75
2019-03-08T20:30:58.701Z,9.08
2019-03-08T20:33:44.964Z,6.67
2019-03-08T20:36:23.654Z,5.95
2019-03-08T20:38:54.560Z,7.75
2019-03-08T20:41:43.921Z,10.03
2019-03-08T20:44:15.527Z,8.38
2019-03-08T20:46:47.900Z,10.85
2019-03-08T20:49:17.216Z,10.10
2019-03-08T20:51:46.416Z,6.83
2019-03-08T20:54:15.760Z,8.55
2019-03-08T20:56:45.085Z,10.98
2019-03-08T20:59:14.356Z,9.93
2019-03-08T21:01:43.563Z,11.65
2019-03-08T21:04:12.911Z,13.43
2019-03-08T21:06:42.364Z,16.37
2019-03-08T21:09:11.630Z,14.38
2019-03-08T21:11:41.181Z,10.23
2019-03-08T21:14:10.438Z,12.10
2019-03-08T21:16:39.730Z,11.03
2019-03-08T21:19:08.956Z,13.85
2019-03-08T21:21:38.218Z,12.03
2019-03-08T21:24:07.702Z,12.75
2019-03-08T21:26:38.139Z,14.95
2019-03-08T21:29:07.440Z,16.55
2019-03-08T21:31:36.735Z,21.35
2019-03-08T21:34:07.626Z,22.15
2019-03-08T21:36:37.397Z,29.82
2019-03-08T21:39:06.943Z,28.62
2019-03-08T21:41:37.057Z,25.27
2019-03-08T21:44:06.323Z,21.90
2019-03-08T21:46:35.641Z,23.40
2019-03-08T21:49:05.268Z,20.00
2019-03-08T21:51:34.654Z,24.40
2019-03-08T21:54:03.888Z,19.67
2019-03-08T21:56:33.297Z,25.37
2019-03-08T21:59:02.637Z,30.62
2019-03-08T22:01:32.198Z,28.52
2019-03-08T22:04:03.308Z,27.67
2019-03-08T22:06:32.528Z,29.32
2019-03-08T22:09:03.378Z,28.87
2019-03-08T22:11:35.924Z,71.57
2019-03-08T22:14:05.841Z,67.08
2019-03-08T22:16:35.153Z,55.15
2019-03-08T22:19:04.413Z,34.00
2019-03-08T22:21:33.664Z,31.25
2019-03-08T22:24:02.956Z,41.60
2019-03-08T22:26:33.916Z,31.85
2019-03-08T22:29:03.142Z,32.50
2019-03-08T22:31:32.440Z,35.98
2019-03-08T22:34:02.075Z,31.95
2019-03-08T22:36:31.380Z,33.50
2019-03-08T22:39:00.983Z,30.30
2019-03-08T22:41:31.966Z,32.08
2019-03-08T22:44:01.209Z,32.20
2019-03-08T22:46:30.447Z,33.42
2019-03-08T22:48:59.672Z,29.95
2019-03-08T22:51:29.233Z,33.60
2019-03-08T22:53:58.502Z,27.13
2019-03-08T22:56:28.001Z,34.20
2019-03-08T22:58:57.442Z,27.13
2019-03-08T23:01:28.389Z,26.33
2019-03-08T23:03:58.451Z,34.10
2019-03-08T23:06:27.739Z,31.73
2019-03-08T23:08:57.042Z,24.87
2019-03-08T23:11:27.755Z,31.60
2019-03-08T23:13:57.249Z,24.18
2019-03-08T23:16:26.687Z,24.90
2019-03-08T23:18:57.575Z,22.55
2019-03-08T23:21:26.780Z,22.98
2019-03-08T23:23:55.982Z,21.62
2019-03-08T23:26:25.214Z,21.93
2019-03-08T23:29:11.613Z,21.37
2019-03-08T23:31:42.494Z,19.52
2019-03-08T23:34:11.761Z,22.52
2019-03-08T23:36:41.039Z,22.27
2019-03-08T23:39:11.059Z,23.47
2019-03-08T23:41:41.267Z,21.02
2019-03-08T23:44:10.680Z,25.48
2019-03-08T23:46:39.950Z,25.02
2019-03-08T23:49:09.210Z,22.75
2019-03-08T23:51:38.463Z,20.23
2019-03-08T23:54:07.654Z,15.15
2019-03-08T23:56:36.926Z,20.25
2019-03-08T23:59:07.680Z,13.00
